Time;durP1;ratioP1;P1;durP2;ratioP2;P2;SDS_P1;SDS_P2;PMS_P1;PMS_P2;Temp;Humidity;BMP_temperature;BMP_pressure;BME280_temperature;BME280_humidity;BME280_pressure;Samples;Min_cycle;Max_cycle;Signal;HPM_P1;HPM_P2
2022/11/15 00:00:51;;;;;;;13.20;9.50;;;;;;;21.84;32.15;101482.59;106278;1288;74060;-91
2022/11/15 00:03:18;;;;;;;14.80;9.90;;;;;;;21.84;32.28;101482.07;105960;1282;68501;-90
2022/11/15 00:05:44;;;;;;;13.70;9.00;;;;;;;21.84;32.27;101478.70;105902;1282;69026;-90
2022/11/15 00:08:09;;;;;;;13.60;9.00;;;;;;;21.85;32.31;101481.27;105656;1287;331469;-90
2022/11/15 00:10:39;;;;;;;13.80;9.70;;;;;;;21.85;32.23;101478.66;105769;1285;67267;31
2022/11/15 00:13:09;;;;;;;12.80;9.20;;;;;;;21.85;32.31;101476.96;105741;1287;74270;-91
2022/11/15 00:15:38;;;;;;;14.80;9.20;;;;;;;21.86;32.18;101473.95;106039;1280;82875;-89
2022/11/15 00:18:04;;;;;;;13.50;9.10;;;;;;;21.86;32.17;101475.08;105959;1295;71268;-89
2022/11/15 00:20:31;;;;;;;13.90;9.50;;;;;;;21.86;32.15;101474.21;105887;1287;69991;-89
2022/11/15 00:22:56;;;;;;;14.40;9.30;;;;;;;21.86;32.13;101477.54;105783;1287;67941;-89
2022/11/15 00:25:28;;;;;;;12.40;9.00;;;;;;;21.86;32.00;101473.76;105877;1290;67822;31
2022/11/15 00:27:58;;;;;;;13.80;9.70;;;;;;;21.87;32.11;101471.00;105852;1297;82765;-89
2022/11/15 00:30:23;;;;;;;14.70;9.50;;;;;;;21.87;32.03;101472.33;106033;1290;72264;-91
2022/11/15 00:32:49;;;;;;;13.90;9.50;;;;;;;21.87;31.93;101464.80;105875;1292;69945;-91
2022/11/15 00:35:15;;;;;;;13.40;9.70;;;;;;;21.87;31.86;101462.24;105938;1290;68165;-90
2022/11/15 00:37:44;;;;;;;13.10;9.60;;;;;;;21.87;31.85;101456.45;105926;1282;68096;-90
2022/11/15 00:42:42;;;;;;;14.50;9.90;;;;;;;21.88;31.88;101444.01;106177;1288;71898;-89
2022/11/15 00:45:08;;;;;;;13.70;9.60;;;;;;;21.88;31.86;101445.04;105966;1292;68343;-89
2022/11/15 00:47:34;;;;;;;14.40;9.90;;;;;;;21.88;31.71;101440.37;105957;1290;68352;-89
2022/11/15 00:50:00;;;;;;;13.50;9.90;;;;;;;21.89;31.79;101434.90;105955;1284;69948;-89
2022/11/15 00:52:25;;;;;;;14.70;9.60;;;;;;;21.89;31.89;101432.86;105870;1294;68072;-92
2022/11/15 00:54:51;;;;;;;14.10;9.60;;;;;;;21.89;31.70;101435.67;105724;1290;69935;-91
2022/11/15 00:57:16;;;;;;;13.00;9.40;;;;;;;21.89;31.88;101435.98;105811;1283;67580;-91
2022/11/15 00:59:42;;;;;;;14.30;9.80;;;;;;;21.89;31.82;101435.88;105961;1282;68039;-90
2022/11/15 01:02:12;;;;;;;14.40;9.90;;;;;;;21.90;31.86;101434.34;105772;1282;68692;-90
2022/11/15 01:04:38;;;;;;;12.20;9.10;;;;;;;21.89;31.74;101428.96;105981;1281;71368;-89
2022/11/15 01:07:04;;;;;;;14.90;10.00;;;;;;;21.89;31.78;101433.41;105740;1296;69810;-89
2022/11/15 01:09:29;;;;;;;13.30;9.30;;;;;;;21.89;31.80;101431.52;105987;1290;67684;-89
2022/11/15 01:11:55;;;;;;;13.40;9.10;;;;;;;21.89;31.61;101430.49;105952;1296;67980;-91
2022/11/15 01:14:21;;;;;;;13.80;9.40;;;;;;;21.89;31.69;101428.50;105826;1293;69257;-90
2022/11/15 01:16:47;;;;;;;13.20;9.80;;;;;;;21.89;31.78;101425.27;105850;1291;67492;-92
2022/11/15 01:19:16;;;;;;;14.60;9.30;;;;;;;21.89;31.70;101427.37;105725;1290;68271;31
2022/11/15 01:21:42;;;;;;;14.00;9.60;;;;;;;21.89;31.61;101425.84;105911;1285;74252;-91
2022/11/15 01:24:09;;;;;;;13.20;9.50;;;;;;;21.88;31.68;101423.63;105826;1288;68245;-91
2022/11/15 01:26:35;;;;;;;13.40;9.60;;;;;;;21.89;31.94;101421.98;105768;1290;68943;-92
2022/11/15 01:29:00;;;;;;;16.40;10.00;;;;;;;21.88;31.76;101422.49;105834;1292;67684;-92
2022/11/15 01:31:34;;;;;;;15.00;10.00;;;;;;;21.89;31.66;101419.99;105689;1291;68735;-91
2022/11/15 01:36:41;;;;;;;13.40;9.90;;;;;;;21.88;31.69;101422.80;105932;1294;83013;-91
2022/11/15 01:39:07;;;;;;;15.00;9.20;;;;;;;21.88;31.69;101421.42;105812;1293;69020;-91
2022/11/15 01:41:33;;;;;;;12.50;9.10;;;;;;;21.87;31.72;101418.22;105753;1295;67258;-91
2022/11/15 01:44:33;;;;;;;13.80;9.50;;;;;;;21.87;31.71;101418.80;105829;1290;68224;-90
2022/11/15 01:47:00;;;;;;;15.70;9.60;;;;;;;21.86;31.66;101418.83;106098;1288;74605;-91
2022/11/15 01:49:26;;;;;;;14.00;9.30;;;;;;;21.86;31.65;101417.55;105815;1284;83148;-90
2022/11/15 01:51:52;;;;;;;13.50;9.70;;;;;;;21.86;31.59;101409.20;105737;1296;69976;-90
2022/11/15 01:54:19;;;;;;;14.00;9.80;;;;;;;21.86;31.70;101408.64;105784;1296;67984;-90
2022/11/15 01:56:53;;;;;;;12.80;9.10;;;;;;;21.86;31.76;101403.30;105915;1297;67435;-89
2022/11/15 01:59:19;;;;;;;15.40;10.10;;;;;;;21.86;31.68;101397.61;105904;1296;74440;-91
2022/11/15 02:02:01;;;;;;;14.10;9.60;;;;;;;21.85;31.75;101396.85;105880;1290;68103;-91
2022/11/15 02:04:28;;;;;;;14.20;9.40;;;;;;;21.86;31.75;101394.34;106025;1294;72257;-89
2022/11/15 02:06:56;;;;;;;13.50;10.10;;;;;;;21.85;31.72;101393.30;105832;1296;70140;-91
2022/11/15 02:09:22;;;;;;;13.50;9.70;;;;;;;21.85;31.71;101390.73;105721;1294;67532;-91
2022/11/15 02:11:48;;;;;;;13.60;9.30;;;;;;;21.85;31.64;101386.08;105899;1287;68294;-89
2022/11/15 02:14:14;;;;;;;13.00;9.40;;;;;;;21.85;31.71;101385.05;105681;1292;67873;-89
2022/11/15 02:16:57;;;;;;;13.60;9.60;;;;;;;21.84;31.75;101381.92;105899;1291;69941;-90
2022/11/15 02:19:32;;;;;;;15.50;10.00;;;;;;;21.84;31.78;101379.04;105810;1279;68868;-90
2022/11/15 02:22:38;;;;;;;14.80;9.70;;;;;;;21.84;31.71;101379.71;105944;1294;68444;31
2022/11/15 02:25:17;;;;;;;14.80;9.70;;;;;;;21.83;31.75;101374.52;105900;1294;74367;-87
2022/11/15 02:33:56;;;;;;;17.00;10.10;;;;;;;21.81;31.55;101373.43;105736;1296;69799;-91
2022/11/15 02:36:49;;;;;;;13.90;9.30;;;;;;;21.81;31.69;101371.02;105718;1290;67507;-91
2022/11/15 02:39:27;;;;;;;12.90;9.30;;;;;;;21.80;31.66;101369.12;105768;1297;73068;-91
2022/11/15 02:42:04;;;;;;;15.70;10.00;;;;;;;21.80;31.72;101365.98;105817;1295;83026;-91
2022/11/15 02:44:38;;;;;;;14.30;9.30;;;;;;;21.80;31.66;101362.61;105809;1291;72421;-91
2022/11/15 02:47:13;;;;;;;13.80;9.70;;;;;;;21.80;31.77;101360.70;105919;1294;69782;-91
2022/11/15 02:49:45;;;;;;;14.80;9.70;;;;;;;21.79;31.76;101360.80;105964;1282;68003;-90
2022/11/15 02:52:22;;;;;;;12.10;8.70;;;;;;;21.80;31.87;101361.69;106063;1291;74368;-90
2022/11/15 02:54:59;;;;;;;13.60;9.40;;;;;;;21.79;31.91;101363.01;105743;1293;82786;31
2022/11/15 03:00:16;;;;;;;14.00;9.50;;;;;;;21.78;31.69;101356.96;106102;1288;69830;-90
2022/11/15 03:02:57;;;;;;;12.60;9.50;;;;;;;21.78;31.87;101354.95;105933;1289;68826;-91
2022/11/15 03:05:25;;;;;;;13.70;8.80;;;;;;;21.77;31.85;101354.49;106222;1286;74541;-90
2022/11/15 03:07:58;;;;;;;13.90;9.60;;;;;;;21.76;31.96;101357.50;106013;1288;81724;-91
2022/11/15 03:10:31;;;;;;;13.50;9.00;;;;;;;21.76;31.85;101357.14;106363;1282;72367;-89
2022/11/15 03:13:21;;;;;;;14.80;10.00;;;;;;;21.77;31.88;101358.38;105997;1287;69994;-88
2022/11/15 03:16:08;;;;;;;13.50;10.00;;;;;;;21.76;32.02;101358.64;105705;1288;68252;31
2022/11/15 03:21:08;;;;;;;15.60;9.90;;;;;;;21.75;31.88;101348.42;106249;1282;81259;-92
2022/11/15 03:23:34;;;;;;;14.30;9.80;;;;;;;21.75;31.97;101346.27;105855;1282;69922;-91
2022/11/15 03:26:07;;;;;;;14.50;9.50;;;;;;;21.75;31.88;101345.60;105928;1291;68141;-91
2022/11/15 03:28:53;;;;;;;14.80;10.00;;;;;;;21.75;32.01;101343.86;105873;1296;67941;-90
2022/11/15 03:34:04;;;;;;;15.20;10.30;;;;;;;21.74;31.95;101347.34;106011;1288;82340;-90
2022/11/15 03:36:30;;;;;;;13.10;9.70;;;;;;;21.74;31.89;101344.16;105721;1290;68924;-90
2022/11/15 03:38:58;;;;;;;15.20;9.50;;;;;;;21.73;31.87;101340.62;105833;1292;69989;-91
2022/11/15 03:41:28;;;;;;;19.10;10.50;;;;;;;21.73;31.97;101338.77;105941;1297;69784;-90
2022/11/15 03:43:57;;;;;;;16.00;10.30;;;;;;;21.73;31.93;101336.37;105909;1296;74336;-90
2022/11/15 03:46:27;;;;;;;15.90;9.90;;;;;;;21.73;31.86;101332.31;105884;1287;81707;-89
2022/11/15 03:48:54;;;;;;;20.10;11.80;;;;;;;21.72;31.88;101336.45;105911;1290;72312;-89
2022/11/15 03:51:20;;;;;;;16.00;10.60;;;;;;;21.70;31.85;101330.85;105600;1294;69724;-89
2022/11/15 03:53:46;;;;;;;18.50;12.10;;;;;;;21.68;31.71;101329.35;105793;1287;67996;-92
2022/11/15 03:56:12;;;;;;;17.90;11.40;;;;;;;21.67;31.71;101326.15;105791;1287;68060;-92
2022/11/15 03:58:37;;;;;;;18.10;11.70;;;;;;;21.65;31.67;101328.59;105909;1279;67691;-89
2022/11/15 04:01:03;;;;;;;18.50;11.50;;;;;;;21.64;31.54;101327.46;105791;1281;67482;-89
2022/11/15 04:05:58;;;;;;;20.70;15.60;;;;;;;21.63;31.92;101323.45;106156;1288;73919;-90
2022/11/15 04:08:24;;;;;;;23.50;15.60;;;;;;;21.64;32.23;101321.73;106212;1292;69935;-91
2022/11/15 04:10:49;;;;;;;22.80;14.50;;;;;;;21.65;32.51;101323.08;106022;1288;67982;-89
2022/11/15 04:13:19;;;;;;;22.50;13.70;;;;;;;21.65;32.68;101321.54;105858;1284;67472;-89
2022/11/15 04:15:45;;;;;;;21.20;14.20;;;;;;;21.64;32.75;101319.23;106077;1291;69859;-89
2022/11/15 04:18:10;;;;;;;24.50;14.30;;;;;;;21.61;32.91;101314.62;105892;1290;69942;-91
2022/11/15 04:26:09;;;;;;;90.40;19.00;;;;;;;21.43;32.33;101305.95;105990;1287;68029;-91
2022/11/15 04:28:34;;;;;;;54.80;16.60;;;;;;;21.37;32.35;101307.83;105872;1291;68357;-90
2022/11/15 04:31:00;;;;;;;36.60;14.40;;;;;;;21.31;32.21;101305.86;105921;1291;70158;-89
2022/11/15 04:38:36;;;;;;;29.60;16.20;;;;;;;21.22;32.15;101297.10;105940;1296;69929;-90
2022/11/15 04:41:02;;;;;;;27.70;14.80;;;;;;;21.14;32.36;101295.73;105866;1293;68242;-90
2022/11/15 04:43:28;;;;;;;29.10;15.00;;;;;;;21.10;32.46;101299.72;105831;1293;69828;-90
2022/11/15 04:45:53;;;;;;;26.40;16.30;;;;;;;21.06;32.39;101290.45;105845;1294;68419;-89
2022/11/15 04:48:19;;;;;;;27.20;15.10;;;;;;;21.03;32.41;101288.17;105756;1290;67817;-90
2022/11/15 04:50:44;;;;;;;22.50;14.50;;;;;;;20.98;32.38;101290.11;105643;1291;68151;-90
2022/11/15 04:53:10;;;;;;;30.00;17.00;;;;;;;20.93;32.39;101289.58;105777;1295;69945;-90
2022/11/15 04:55:35;;;;;;;30.30;16.80;;;;;;;20.79;31.92;101282.83;105764;1290;68270;-90
2022/11/15 04:58:01;;;;;;;29.30;16.70;;;;;;;20.56;31.95;101293.34;105655;1287;70168;-89
2022/11/15 05:00:27;;;;;;;26.60;16.20;;;;;;;20.27;31.80;101290.61;105699;1282;68342;-89
2022/11/15 05:05:37;;;;;;;27.30;15.80;;;;;;;20.18;31.84;101290.46;105745;1291;81813;-89
2022/11/15 05:08:03;;;;;;;29.70;14.90;;;;;;;20.22;32.05;101285.66;105775;1291;69925;-89
2022/11/15 05:10:28;;;;;;;25.40;15.00;;;;;;;20.26;31.87;101286.34;105744;1294;68632;-89
2022/11/15 05:12:54;;;;;;;27.80;15.70;;;;;;;20.31;31.85;101294.44;105772;1296;68786;-90
2022/11/15 05:15:19;;;;;;;29.00;15.00;;;;;;;20.33;31.78;101292.69;105724;1287;70211;-91
2022/11/15 05:17:45;;;;;;;31.90;15.40;;;;;;;20.36;31.70;101296.10;105842;1290;72593;-89
2022/11/15 05:20:11;;;;;;;24.80;14.50;;;;;;;20.37;31.88;101295.05;105759;1291;68103;-90
2022/11/15 05:22:36;;;;;;;26.90;15.40;;;;;;;20.39;31.67;101297.06;105964;1291;68732;-90
2022/11/15 05:25:02;;;;;;;27.90;15.10;;;;;;;20.39;31.60;101294.93;105926;1292;68029;-90
2022/11/15 05:27:27;;;;;;;28.10;16.10;;;;;;;20.41;31.48;101295.67;105973;1287;67910;-90
2022/11/15 05:29:53;;;;;;;23.60;14.10;;;;;;;20.41;31.44;101293.02;105833;1299;67781;-90
2022/11/15 05:32:19;;;;;;;25.90;14.90;;;;;;;20.41;31.39;101291.64;106067;1290;67519;-90
2022/11/15 05:34:44;;;;;;;26.30;15.70;;;;;;;20.42;31.52;101287.56;105877;1283;68496;-90
2022/11/15 05:37:18;;;;;;;26.90;15.50;;;;;;;20.43;31.58;101291.52;106273;1282;67458;-91
2022/11/15 05:42:45;;;;;;;24.80;15.00;;;;;;;20.43;31.64;101285.89;106522;1287;67516;-92
2022/11/15 06:03:28;;;;;;;24.10;13.70;;;;;;;20.62;31.57;101298.75;106323;1288;74795;31
2022/11/15 06:24:30;;;;;;;23.80;12.50;;;;;;;20.78;31.75;101291.52;106852;1275;71216;31
2022/11/15 06:35:39;;;;;;;28.30;14.30;;;;;;;20.82;31.88;101290.46;106615;1287;79941;-90
2022/11/15 06:38:06;;;;;;;26.70;13.90;;;;;;;20.83;31.83;101296.75;106492;1283;68329;-91
2022/11/15 06:40:35;;;;;;;28.80;12.90;;;;;;;20.83;31.78;101297.95;106733;1288;67440;-92
2022/11/15 06:43:01;;;;;;;29.90;14.20;;;;;;;20.84;31.69;101298.31;106524;1282;67774;-90
2022/11/15 06:45:27;;;;;;;28.40;14.10;;;;;;;20.85;31.73;101295.36;106599;1288;67641;-90
2022/11/15 06:47:53;;;;;;;33.00;15.20;;;;;;;20.85;31.64;101296.69;106716;1274;67375;-90
2022/11/15 06:50:18;;;;;;;33.20;14.60;;;;;;;20.86;31.74;101295.41;106653;1280;67223;-92
2022/11/15 06:52:44;;;;;;;29.80;14.00;;;;;;;20.85;31.69;101299.10;106730;1287;68244;-90
2022/11/15 06:55:10;;;;;;;28.40;13.30;;;;;;;20.86;31.72;101294.50;106728;1283;67344;-91
2022/11/15 06:57:35;;;;;;;27.60;13.30;;;;;;;20.86;31.65;101295.94;106620;1283;83767;-89
2022/11/15 07:00:03;;;;;;;23.80;13.80;;;;;;;20.87;31.61;101293.23;106496;1280;67327;-90
2022/11/15 07:02:29;;;;;;;31.20;14.50;;;;;;;20.87;31.53;101289.50;106565;1286;67778;-89
2022/11/15 08:08:16;;;;;;;26.30;15.80;;;;;;;20.79;32.36;101263.21;106905;1280;74770;-91
2022/11/15 08:10:51;;;;;;;27.80;16.40;;;;;;;20.79;32.37;101263.48;106261;1279;68647;31
2022/11/15 08:13:17;;;;;;;26.90;15.80;;;;;;;20.78;32.25;101265.08;106675;1288;72538;-92
2022/11/15 08:15:51;;;;;;;28.50;17.50;;;;;;;20.77;32.34;101270.42;106711;1283;67969;-90
2022/11/15 08:18:16;;;;;;;28.70;16.20;;;;;;;20.75;32.32;101263.59;106674;1284;66949;-92
2022/11/15 08:21:00;;;;;;;26.50;16.00;;;;;;;20.75;32.27;101264.01;106647;1283;67476;31
2022/11/15 08:23:25;;;;;;;27.10;17.00;;;;;;;20.75;32.21;101264.58;106736;1277;83827;-90
2022/11/15 08:25:51;;;;;;;21.30;13.00;;;;;;;20.74;32.36;101260.65;106730;1283;68122;-91
2022/11/15 08:28:17;;;;;;;28.50;16.70;;;;;;;20.75;32.49;101253.41;106445;1286;66790;-90
2022/11/15 08:30:49;;;;;;;26.50;15.00;;;;;;;20.75;32.61;101255.16;106587;1282;66700;-91
2022/11/15 08:33:15;;;;;;;25.80;15.30;;;;;;;20.76;32.39;101251.59;106772;1282;74412;-90
2022/11/15 08:44:13;;;;;;;24.80;14.90;;;;;;;20.75;32.69;101246.65;107064;1280;66991;-93
2022/11/15 08:46:57;;;;;;;25.20;15.10;;;;;;;20.74;32.75;101245.16;106733;1281;66017;-90
2022/11/15 08:49:24;;;;;;;26.00;15.50;;;;;;;20.73;32.67;101247.45;106797;1289;83074;-91
2022/11/15 09:00:58;;;;;;;23.60;14.80;;;;;;;20.69;32.43;101237.02;106856;1272;73316;-90
2022/11/15 09:03:24;;;;;;;32.00;17.20;;;;;;;20.70;32.62;101232.17;106641;1287;82893;-89
2022/11/15 09:06:17;;;;;;;30.50;17.10;;;;;;;20.70;32.68;101229.55;106524;1279;68747;31
2022/11/15 09:11:44;;;;;;;33.70;19.10;;;;;;;20.69;32.67;101219.17;107048;1286;67361;-89
2022/11/15 09:14:13;;;;;;;30.50;17.80;;;;;;;20.69;32.76;101215.64;106682;1280;66854;-91
2022/11/15 09:16:38;;;;;;;33.80;17.80;;;;;;;20.69;32.76;101214.05;106723;1289;81972;-91
2022/11/15 09:19:17;;;;;;;;;;;;;;;;;;;;;
2022/11/15 09:43:35;;;;;;;25.10;14.60;;;;;;;20.54;33.04;101187.73;107242;1281;75100;-91
2022/11/15 10:04:04;;;;;;;25.90;15.80;;;;;;;20.49;32.68;101152.99;106899;1284;71522;-91
2022/11/15 10:24:35;;;;;;;32.40;16.40;;;;;;;20.53;33.33;101127.64;106862;1274;66830;-91
2022/11/15 10:30:13;;;;;;;30.00;17.00;;;;;;;20.52;33.33;101118.13;107116;1271;80765;-94
2022/11/15 10:53:40;;;;;;;26.20;15.10;;;;;;;20.41;32.98;101093.77;106906;1279;65843;-91
2022/11/15 10:56:26;;;;;;;26.30;14.60;;;;;;;20.41;32.95;101089.59;106666;1278;74354;31
2022/11/15 12:07:35;;;;;;;30.10;16.10;;;;;;;20.42;33.26;101006.27;103392;1273;5005907;-93
2022/11/15 12:10:22;;;;;;;21.40;14.00;;;;;;;20.44;33.43;100997.15;106185;1282;74710;-91
2022/11/15 12:39:10;;;;;;;25.50;14.40;;;;;;;20.55;33.87;100968.99;106716;1283;67745;-92
2022/11/15 12:41:57;;;;;;;28.00;14.80;;;;;;;20.57;33.95;100970.85;106447;1286;74406;-92
2022/11/15 12:48:16;;;;;;;24.10;14.10;;;;;;;20.58;33.83;100959.14;106870;1287;71364;-90
2022/11/15 12:50:53;;;;;;;25.90;14.40;;;;;;;20.60;33.84;100953.74;106989;1280;67694;-91
2022/11/15 12:53:42;;;;;;;32.10;15.60;;;;;;;20.63;33.71;100951.58;106892;1281;66766;-91
2022/11/15 12:56:16;;;;;;;26.30;14.90;;;;;;;20.65;33.79;100947.27;106543;1292;72969;-91
2022/11/15 12:58:52;;;;;;;26.60;14.50;;;;;;;20.68;33.73;100945.38;106843;1278;82946;31
2022/11/15 13:04:27;;;;;;;26.80;14.20;;;;;;;20.73;33.86;100932.38;106888;1280;66782;-92
2022/11/15 13:07:03;;;;;;;25.20;13.60;;;;;;;20.75;33.80;100933.61;106767;1278;66871;-91
2022/11/15 13:09:37;;;;;;;24.00;13.60;;;;;;;20.77;33.86;100933.11;106595;1277;74369;-89
2022/11/15 13:12:03;;;;;;;22.20;12.90;;;;;;;20.80;33.99;100935.27;106637;1282;82868;-90
2022/11/15 13:14:44;;;;;;;21.80;13.10;;;;;;;20.82;33.80;100933.00;106816;1280;67458;-91
2022/11/15 13:17:21;;;;;;;26.10;12.80;;;;;;;20.84;33.71;100929.84;106588;1289;66839;-91
2022/11/15 13:30:59;;;;;;;21.90;12.00;;;;;;;20.92;33.55;100918.04;106833;1281;67504;-90
2022/11/15 13:33:29;;;;;;;21.30;11.20;;;;;;;20.92;33.64;100913.69;106675;1283;67417;-90
2022/11/15 13:35:57;;;;;;;19.40;11.70;;;;;;;20.93;33.54;100916.20;106703;1283;75278;-92
2022/11/15 13:38:35;;;;;;;20.50;11.90;;;;;;;20.94;33.58;100917.68;106701;1287;82757;-91
2022/11/15 13:44:19;;;;;;;21.70;11.20;;;;;;;20.94;33.47;100911.75;107115;1280;66921;-90
2022/11/15 13:49:57;;;;;;;20.80;12.30;;;;;;;20.96;33.39;100905.07;107104;1281;73196;31
2022/11/15 14:07:05;;;;;;;26.20;13.00;;;;;;;21.03;33.39;100872.23;106952;1281;80380;-91
2022/11/15 14:09:50;;;;;;;22.70;12.50;;;;;;;21.03;33.15;100870.88;106703;1283;66724;-91
2022/11/15 14:15:39;;;;;;;20.20;12.00;;;;;;;21.01;33.04;100868.32;107161;1278;65464;-93
2022/11/15 14:18:05;;;;;;;21.90;12.00;;;;;;;21.01;32.85;100868.98;106758;1284;75147;-91
2022/11/15 14:20:50;;;;;;;18.60;11.10;;;;;;;21.01;32.75;100866.23;106724;1282;67375;-93
2022/11/15 14:26:05;;;;;;;26.50;15.00;;;;;;;21.01;32.56;100866.42;106930;1281;65361;-91
2022/11/15 14:28:38;;;;;;;26.50;15.20;;;;;;;21.01;32.49;100862.80;106695;1276;66854;-90
2022/11/15 14:36:55;;;;;;;23.20;14.50;;;;;;;21.00;32.05;100853.89;107045;1280;71170;-93
2022/11/15 14:45:14;;;;;;;21.30;12.70;;;;;;;20.98;32.13;100843.77;106932;1279;73075;-93
2022/11/15 14:47:40;;;;;;;18.90;12.20;;;;;;;20.98;32.09;100841.38;106982;1277;66916;-93
2022/11/15 14:50:27;;;;;;;17.90;11.20;;;;;;;20.98;31.83;100833.81;106664;1288;67568;-91
2022/11/15 14:52:53;;;;;;;21.40;11.80;;;;;;;20.98;32.01;100833.61;106732;1285;67965;-91
2022/11/15 14:55:36;;;;;;;17.50;10.90;;;;;;;20.99;31.95;100831.83;106847;1281;67229;31
2022/11/15 14:58:03;;;;;;;29.50;17.60;;;;;;;20.98;31.86;100831.52;106847;1281;73098;-93
2022/11/15 15:00:30;;;;;;;31.10;18.70;;;;;;;20.98;31.77;100830.94;106776;1280;82819;-93
2022/11/15 15:02:55;;;;;;;31.70;19.30;;;;;;;20.96;31.69;100828.53;106854;1289;71002;-93
2022/11/15 15:08:46;;;;;;;32.40;18.40;;;;;;;20.94;31.71;100826.23;107159;1278;68247;-92
2022/11/15 15:11:26;;;;;;;29.40;17.90;;;;;;;20.93;31.80;100824.70;106987;1281;74372;-92
2022/11/15 15:29:04;;;;;;;26.10;14.00;;;;;;;20.72;32.04;100810.88;106893;1287;79997;-92
2022/11/15 16:23:04;;;;;;;18.10;10.50;;;;;;;20.12;32.73;100768.52;107147;1274;68754;-91
2022/11/15 16:37:33;;;;;;;20.10;11.40;;;;;;;20.30;32.74;100761.56;106461;1278;68199;31
2022/11/15 17:31:25;;;;;;;20.70;12.20;;;;;;;20.15;32.66;100703.06;107117;1280;71230;-92
2022/11/15 17:49:02;;;;;;;21.40;13.20;;;;;;;20.32;32.65;100684.58;107223;1280;65158;31
2022/11/15 17:57:17;;;;;;;22.50;12.90;;;;;;;20.41;32.66;100674.85;107089;1285;79967;-92
2022/11/15 18:05:37;;;;;;;21.00;12.40;;;;;;;20.47;32.75;100675.23;107105;1280;67324;-94
2022/11/15 18:17:30;;;;;;;19.70;12.50;;;;;;;20.55;32.73;100670.73;107029;1281;66705;-93
2022/11/15 18:19:56;;;;;;;20.70;12.90;;;;;;;20.56;32.67;100661.91;106760;1281;66717;-93
2022/11/15 18:22:22;;;;;;;21.80;12.70;;;;;;;20.59;32.52;100662.12;106743;1281;66841;-93
2022/11/15 18:24:48;;;;;;;21.60;13.60;;;;;;;20.61;32.60;100658.81;106709;1288;67487;-93
2022/11/15 18:27:14;;;;;;;20.20;12.70;;;;;;;20.62;32.63;100661.37;106668;1286;67249;-93
2022/11/15 18:29:39;;;;;;;20.80;12.40;;;;;;;20.64;32.62;100656.27;106728;1285;66860;-93
2022/11/15 18:32:11;;;;;;;21.40;13.30;;;;;;;20.65;32.48;100655.91;106661;1286;73425;-93
2022/11/15 18:34:36;;;;;;;21.30;13.40;;;;;;;20.67;32.69;100653.30;106701;1283;83443;-93
2022/11/15 18:37:03;;;;;;;20.30;12.90;;;;;;;20.67;32.57;100648.25;106670;1285;66806;-93
2022/11/15 18:39:28;;;;;;;22.70;13.70;;;;;;;20.70;32.63;100648.36;106801;1283;67297;-93
2022/11/15 18:41:54;;;;;;;25.10;13.90;;;;;;;20.71;32.52;100645.55;106722;1284;66807;-93
2022/11/15 18:44:20;;;;;;;19.30;13.10;;;;;;;20.72;32.53;100641.21;106705;1267;66669;-93
2022/11/15 18:46:46;;;;;;;25.10;13.10;;;;;;;20.74;32.51;100639.42;106805;1279;66716;-93
2022/11/15 18:49:12;;;;;;;19.50;12.80;;;;;;;20.75;32.63;100636.48;106811;1288;66802;-93
2022/11/15 18:51:40;;;;;;;20.50;12.70;;;;;;;20.76;32.51;100638.73;106776;1276;66706;-93
2022/11/15 18:54:07;;;;;;;21.10;13.30;;;;;;;20.77;32.65;100628.78;106760;1285;74278;-93
2022/11/15 18:56:33;;;;;;;23.40;13.50;;;;;;;20.79;32.58;100629.25;106789;1286;81649;-93
2022/11/15 19:02:02;;;;;;;22.40;12.50;;;;;;;20.80;32.44;100622.30;107123;1280;66756;-92
2022/11/15 19:27:52;;;;;;;21.40;13.50;;;;;;;20.89;32.51;100609.95;107165;1287;71627;-93
2022/11/15 20:11:53;;;;;;;25.50;14.30;;;;;;;21.02;32.33;100587.00;107081;1280;71228;-92
2022/11/15 20:14:19;;;;;;;23.40;13.60;;;;;;;21.02;32.44;100587.21;106788;1284;67168;-93
2022/11/15 20:22:36;;;;;;;23.80;14.20;;;;;;;21.05;32.27;100571.91;107096;1280;79988;-94
2022/11/15 20:40:18;;;;;;;27.90;14.40;;;;;;;21.06;32.32;100545.05;107150;1280;71227;-92
2022/11/15 20:42:44;;;;;;;24.10;14.50;;;;;;;21.07;32.36;100534.58;106769;1284;68117;-91
2022/11/15 21:36:05;;;;;;;24.80;15.10;;;;;;;21.09;32.31;100489.81;107120;1265;83827;31
2022/11/15 21:38:31;;;;;;;24.40;14.90;;;;;;;21.07;32.39;100480.49;106755;1287;71462;-94
2022/11/15 21:49:40;;;;;;;21.90;13.90;;;;;;;21.09;32.47;100463.30;107049;1273;79859;-92
2022/11/15 22:06:29;;;;;;;24.00;15.00;;;;;;;21.11;32.51;100445.09;107106;1280;71106;-93
2022/11/15 22:30:35;;;;;;;27.30;15.10;;;;;;;21.13;32.48;100400.02;107036;1280;73196;-91
2022/11/15 22:47:34;;;;;;;26.90;15.00;;;;;;;21.16;32.42;100379.14;107175;1280;79883;-91
2022/11/15 22:50:00;;;;;;;25.30;14.40;;;;;;;21.16;32.36;100373.46;106938;1270;66769;-92
2022/11/15 22:52:26;;;;;;;26.00;15.20;;;;;;;21.18;32.44;100368.80;106916;1283;67220;-92
2022/11/15 22:54:52;;;;;;;25.20;13.90;;;;;;;21.19;32.50;100363.53;106953;1283;67112;-92
2022/11/15 22:57:18;;;;;;;23.00;14.50;;;;;;;21.19;32.40;100364.71;106951;1287;66706;-95
2022/11/15 22:59:43;;;;;;;23.00;14.10;;;;;;;21.19;32.46;100364.39;106885;1277;66955;-92
2022/11/15 23:02:09;;;;;;;24.30;14.30;;;;;;;21.20;32.51;100358.66;106943;1281;66766;-93
2022/11/15 23:04:35;;;;;;;26.40;14.70;;;;;;;21.21;32.48;100354.80;106947;1274;67203;-93
2022/11/15 23:07:01;;;;;;;23.80;14.60;;;;;;;21.22;32.52;100350.11;106865;1271;66968;-93
2022/11/15 23:09:27;;;;;;;24.40;15.30;;;;;;;21.22;32.39;100343.35;106895;1283;66738;-93
2022/11/15 23:14:37;;;;;;;23.60;14.60;;;;;;;21.23;32.50;100337.56;106939;1283;67351;-93
2022/11/15 23:17:03;;;;;;;25.00;14.20;;;;;;;21.23;32.46;100332.86;106826;1283;66817;-93
2022/11/15 23:22:49;;;;;;;22.90;14.30;;;;;;;21.24;32.59;100328.82;107192;1284;79990;-94
2022/11/15 23:39:58;;;;;;;26.80;14.70;;;;;;;21.25;32.58;100303.42;107171;1278;71232;-92
2022/11/15 23:45:11;;;;;;;22.80;13.90;;;;;;;21.27;32.53;100304.30;107085;1272;66749;-95
2022/11/15 23:50:50;;;;;;;25.00;14.30;;;;;;;21.27;32.47;100296.73;107149;1279;79963;31
